sensor_id;sensor_type;location;lat;lon;timestamp;P1;durP1;ratioP1;P2;durP2;ratioP2
43861;SDS011;29510;52.140;5.034;2023-05-07T00:06:17;21.75;;;11.32;;
43861;SDS011;29510;52.140;5.034;2023-05-07T00:16:18;19.83;;;10.57;;
43861;SDS011;29510;52.140;5.034;2023-05-07T00:26:19;16.17;;;9.57;;
43861;SDS011;29510;52.140;5.034;2023-05-07T00:36:21;20.05;;;11.80;;
43861;SDS011;29510;52.140;5.034;2023-05-07T00:46:22;19.13;;;11.75;;
43861;SDS011;29510;52.140;5.034;2023-05-07T00:56:23;16.60;;;8.95;;
43861;SDS011;29510;52.140;5.034;2023-05-07T01:06:25;15.95;;;8.90;;
43861;SDS011;29510;52.140;5.034;2023-05-07T01:16:28;13.45;;;7.70;;
43861;SDS011;29510;52.140;5.034;2023-05-07T01:26:29;12.85;;;7.45;;
43861;SDS011;29510;52.140;5.034;2023-05-07T01:36:30;11.38;;;6.60;;
43861;SDS011;29510;52.140;5.034;2023-05-07T01:46:32;11.10;;;6.78;;
43861;SDS011;29510;52.140;5.034;2023-05-07T01:56:34;10.02;;;6.38;;
43861;SDS011;29510;52.140;5.034;2023-05-07T02:06:35;8.68;;;5.47;;
43861;SDS011;29510;52.140;5.034;2023-05-07T02:16:36;7.80;;;5.22;;
43861;SDS011;29510;52.140;5.034;2023-05-07T02:26:38;8.60;;;5.60;;
43861;SDS011;29510;52.140;5.034;2023-05-07T02:36:40;9.68;;;5.43;;
43861;SDS011;29510;52.140;5.034;2023-05-07T02:46:45;6.90;;;4.60;;
43861;SDS011;29510;52.140;5.034;2023-05-07T02:56:46;8.65;;;5.43;;
43861;SDS011;29510;52.140;5.034;2023-05-07T03:06:47;9.63;;;5.28;;
43861;SDS011;29510;52.140;5.034;2023-05-07T03:16:49;10.05;;;5.32;;
43861;SDS011;29510;52.140;5.034;2023-05-07T03:26:51;7.47;;;4.75;;
43861;SDS011;29510;52.140;5.034;2023-05-07T03:36:52;8.65;;;5.07;;
43861;SDS011;29510;52.140;5.034;2023-05-07T03:46:53;10.02;;;6.32;;
43861;SDS011;29510;52.140;5.034;2023-05-07T03:56:54;12.90;;;7.15;;
43861;SDS011;29510;52.140;5.034;2023-05-07T04:06:55;12.32;;;6.38;;
43861;SDS011;29510;52.140;5.034;2023-05-07T04:16:56;10.98;;;7.72;;
43861;SDS011;29510;52.140;5.034;2023-05-07T04:26:57;10.20;;;6.50;;
43861;SDS011;29510;52.140;5.034;2023-05-07T04:36:59;10.65;;;6.40;;
43861;SDS011;29510;52.140;5.034;2023-05-07T04:47:00;10.77;;;6.25;;
43861;SDS011;29510;52.140;5.034;2023-05-07T04:57:03;11.85;;;7.40;;
43861;SDS011;29510;52.140;5.034;2023-05-07T05:07:07;12.27;;;7.72;;
43861;SDS011;29510;52.140;5.034;2023-05-07T05:17:08;13.88;;;7.72;;
43861;SDS011;29510;52.140;5.034;2023-05-07T05:27:09;14.27;;;9.23;;
43861;SDS011;29510;52.140;5.034;2023-05-07T05:37:10;14.73;;;8.63;;
43861;SDS011;29510;52.140;5.034;2023-05-07T05:47:11;14.75;;;9.30;;
43861;SDS011;29510;52.140;5.034;2023-05-07T05:57:12;17.25;;;9.57;;
43861;SDS011;29510;52.140;5.034;2023-05-07T06:07:14;19.05;;;10.15;;
43861;SDS011;29510;52.140;5.034;2023-05-07T06:17:15;13.85;;;8.77;;
43861;SDS011;29510;52.140;5.034;2023-05-07T06:27:16;17.90;;;10.27;;
43861;SDS011;29510;52.140;5.034;2023-05-07T06:37:18;14.30;;;9.30;;
43861;SDS011;29510;52.140;5.034;2023-05-07T06:47:19;14.80;;;9.95;;
43861;SDS011;29510;52.140;5.034;2023-05-07T06:57:20;20.48;;;10.95;;
43861;SDS011;29510;52.140;5.034;2023-05-07T07:07:21;17.10;;;10.00;;
43861;SDS011;29510;52.140;5.034;2023-05-07T07:17:22;20.40;;;12.68;;
43861;SDS011;29510;52.140;5.034;2023-05-07T07:27:23;19.48;;;11.75;;
43861;SDS011;29510;52.140;5.034;2023-05-07T07:37:24;21.13;;;12.10;;
43861;SDS011;29510;52.140;5.034;2023-05-07T07:47:25;19.98;;;11.35;;
43861;SDS011;29510;52.140;5.034;2023-05-07T07:57:27;19.13;;;12.15;;
43861;SDS011;29510;52.140;5.034;2023-05-07T08:07:28;17.90;;;10.60;;
43861;SDS011;29510;52.140;5.034;2023-05-07T08:17:29;14.35;;;9.32;;
43861;SDS011;29510;52.140;5.034;2023-05-07T08:27:30;17.42;;;10.23;;
43861;SDS011;29510;52.140;5.034;2023-05-07T08:37:31;14.90;;;8.90;;
43861;SDS011;29510;52.140;5.034;2023-05-07T08:47:35;11.27;;;7.47;;
43861;SDS011;29510;52.140;5.034;2023-05-07T08:57:59;9.00;;;5.88;;
43861;SDS011;29510;52.140;5.034;2023-05-07T09:08:01;8.85;;;5.50;;
43861;SDS011;29510;52.140;5.034;2023-05-07T09:18:03;8.30;;;5.40;;
43861;SDS011;29510;52.140;5.034;2023-05-07T09:28:04;7.25;;;4.57;;
43861;SDS011;29510;52.140;5.034;2023-05-07T09:38:07;6.20;;;4.63;;
43861;SDS011;29510;52.140;5.034;2023-05-07T09:48:08;9.82;;;5.07;;
43861;SDS011;29510;52.140;5.034;2023-05-07T09:58:11;5.75;;;3.35;;
43861;SDS011;29510;52.140;5.034;2023-05-07T10:08:13;7.07;;;3.33;;
43861;SDS011;29510;52.140;5.034;2023-05-07T10:18:18;4.72;;;3.28;;
43861;SDS011;29510;52.140;5.034;2023-05-07T10:28:23;6.70;;;3.40;;
43861;SDS011;29510;52.140;5.034;2023-05-07T10:38:26;6.07;;;3.10;;
43861;SDS011;29510;52.140;5.034;2023-05-07T10:48:28;5.18;;;2.65;;
43861;SDS011;29510;52.140;5.034;2023-05-07T10:58:30;5.40;;;3.05;;
43861;SDS011;29510;52.140;5.034;2023-05-07T11:19:06;4.05;;;2.47;;
43861;SDS011;29510;52.140;5.034;2023-05-07T11:29:14;4.15;;;2.58;;
43861;SDS011;29510;52.140;5.034;2023-05-07T11:39:24;3.03;;;1.08;;
43861;SDS011;29510;52.140;5.034;2023-05-07T11:49:25;4.03;;;1.80;;
43861;SDS011;29510;52.140;5.034;2023-05-07T11:59:27;6.55;;;1.67;;
43861;SDS011;29510;52.140;5.034;2023-05-07T12:09:28;6.70;;;2.08;;
43861;SDS011;29510;52.140;5.034;2023-05-07T12:19:30;3.58;;;1.70;;
43861;SDS011;29510;52.140;5.034;2023-05-07T12:29:31;4.97;;;1.73;;
43861;SDS011;29510;52.140;5.034;2023-05-07T12:39:32;2.47;;;1.58;;
43861;SDS011;29510;52.140;5.034;2023-05-07T12:49:34;6.13;;;1.48;;
43861;SDS011;29510;52.140;5.034;2023-05-07T12:59:39;5.57;;;1.83;;
43861;SDS011;29510;52.140;5.034;2023-05-07T13:09:42;4.47;;;2.08;;
43861;SDS011;29510;52.140;5.034;2023-05-07T13:19:43;6.25;;;2.00;;
43861;SDS011;29510;52.140;5.034;2023-05-07T13:29:44;2.95;;;1.80;;
43861;SDS011;29510;52.140;5.034;2023-05-07T13:39:45;4.38;;;2.10;;
43861;SDS011;29510;52.140;5.034;2023-05-07T13:49:46;4.63;;;1.88;;
43861;SDS011;29510;52.140;5.034;2023-05-07T13:59:49;3.97;;;1.75;;
43861;SDS011;29510;52.140;5.034;2023-05-07T14:09:50;4.10;;;1.38;;
43861;SDS011;29510;52.140;5.034;2023-05-07T14:19:52;4.88;;;2.50;;
43861;SDS011;29510;52.140;5.034;2023-05-07T14:29:55;9.75;;;3.80;;
43861;SDS011;29510;52.140;5.034;2023-05-07T14:39:56;6.15;;;3.47;;
43861;SDS011;29510;52.140;5.034;2023-05-07T14:49:57;5.15;;;3.20;;
43861;SDS011;29510;52.140;5.034;2023-05-07T14:59:58;3.90;;;2.25;;
43861;SDS011;29510;52.140;5.034;2023-05-07T15:09:59;2.53;;;1.58;;
43861;SDS011;29510;52.140;5.034;2023-05-07T15:20:01;4.63;;;2.47;;
43861;SDS011;29510;52.140;5.034;2023-05-07T15:30:02;5.18;;;2.95;;
43861;SDS011;29510;52.140;5.034;2023-05-07T15:40:03;9.68;;;4.95;;
43861;SDS011;29510;52.140;5.034;2023-05-07T15:50:07;8.18;;;4.90;;
43861;SDS011;29510;52.140;5.034;2023-05-07T16:00:08;4.60;;;3.08;;
43861;SDS011;29510;52.140;5.034;2023-05-07T16:10:11;3.67;;;2.20;;
43861;SDS011;29510;52.140;5.034;2023-05-07T16:20:13;4.45;;;2.90;;
43861;SDS011;29510;52.140;5.034;2023-05-07T16:30:14;3.78;;;2.47;;
43861;SDS011;29510;52.140;5.034;2023-05-07T16:40:20;4.30;;;1.75;;
43861;SDS011;29510;52.140;5.034;2023-05-07T16:50:21;2.20;;;1.50;;
43861;SDS011;29510;52.140;5.034;2023-05-07T17:00:22;3.53;;;1.52;;
43861;SDS011;29510;52.140;5.034;2023-05-07T17:10:24;5.00;;;2.35;;
43861;SDS011;29510;52.140;5.034;2023-05-07T17:20:25;2.92;;;1.70;;
43861;SDS011;29510;52.140;5.034;2023-05-07T17:30:26;3.20;;;1.45;;
43861;SDS011;29510;52.140;5.034;2023-05-07T17:40:27;2.35;;;1.10;;
43861;SDS011;29510;52.140;5.034;2023-05-07T17:50:31;1.52;;;0.80;;
43861;SDS011;29510;52.140;5.034;2023-05-07T18:00:32;1.77;;;0.75;;
43861;SDS011;29510;52.140;5.034;2023-05-07T18:10:33;1.25;;;0.82;;
43861;SDS011;29510;52.140;5.034;2023-05-07T18:20:34;2.22;;;1.42;;
43861;SDS011;29510;52.140;5.034;2023-05-07T18:30:35;2.28;;;1.08;;
43861;SDS011;29510;52.140;5.034;2023-05-07T18:40:36;3.20;;;1.33;;
43861;SDS011;29510;52.140;5.034;2023-05-07T18:50:43;2.30;;;1.35;;
43861;SDS011;29510;52.140;5.034;2023-05-07T19:00:45;2.20;;;1.45;;
43861;SDS011;29510;52.140;5.034;2023-05-07T19:10:47;2.58;;;1.58;;
43861;SDS011;29510;52.140;5.034;2023-05-07T19:20:48;5.60;;;2.30;;
43861;SDS011;29510;52.140;5.034;2023-05-07T19:30:50;7.82;;;2.17;;
43861;SDS011;29510;52.140;5.034;2023-05-07T19:40:55;5.20;;;2.13;;
43861;SDS011;29510;52.140;5.034;2023-05-07T19:50:57;4.22;;;1.75;;
43861;SDS011;29510;52.140;5.034;2023-05-07T20:00:59;4.68;;;2.08;;
43861;SDS011;29510;52.140;5.034;2023-05-07T20:11:01;3.15;;;1.83;;
43861;SDS011;29510;52.140;5.034;2023-05-07T20:21:02;3.05;;;1.88;;
43861;SDS011;29510;52.140;5.034;2023-05-07T20:31:04;3.28;;;1.98;;
43861;SDS011;29510;52.140;5.034;2023-05-07T20:41:09;3.55;;;1.90;;
43861;SDS011;29510;52.140;5.034;2023-05-07T20:51:14;4.18;;;2.13;;
43861;SDS011;29510;52.140;5.034;2023-05-07T21:01:15;4.22;;;2.60;;
43861;SDS011;29510;52.140;5.034;2023-05-07T21:11:16;4.53;;;2.88;;
43861;SDS011;29510;52.140;5.034;2023-05-07T21:21:18;5.30;;;2.63;;
43861;SDS011;29510;52.140;5.034;2023-05-07T21:31:19;4.07;;;2.28;;
43861;SDS011;29510;52.140;5.034;2023-05-07T21:41:20;3.47;;;2.00;;
43861;SDS011;29510;52.140;5.034;2023-05-07T21:51:22;5.07;;;2.88;;
43861;SDS011;29510;52.140;5.034;2023-05-07T22:01:23;4.53;;;2.70;;
43861;SDS011;29510;52.140;5.034;2023-05-07T22:11:24;5.40;;;3.08;;
43861;SDS011;29510;52.140;5.034;2023-05-07T22:21:25;4.95;;;2.88;;
43861;SDS011;29510;52.140;5.034;2023-05-07T22:31:26;5.63;;;3.15;;
43861;SDS011;29510;52.140;5.034;2023-05-07T22:41:27;5.25;;;3.15;;
43861;SDS011;29510;52.140;5.034;2023-05-07T22:51:28;7.70;;;3.85;;
43861;SDS011;29510;52.140;5.034;2023-05-07T23:01:30;6.15;;;3.50;;
43861;SDS011;29510;52.140;5.034;2023-05-07T23:11:31;7.15;;;3.92;;
43861;SDS011;29510;52.140;5.034;2023-05-07T23:21:32;6.25;;;3.60;;
43861;SDS011;29510;52.140;5.034;2023-05-07T23:31:33;7.72;;;4.05;;
43861;SDS011;29510;52.140;5.034;2023-05-07T23:41:34;7.82;;;4.13;;
43861;SDS011;29510;52.140;5.034;2023-05-07T23:51:35;5.72;;;3.72;;
